createdAt,value
2022-11-19T00:03:16.318Z,15
2022-11-19T00:05:16.323Z,16
2022-11-19T00:10:16.328Z,16
2022-11-19T00:12:16.320Z,18
2022-11-19T00:13:16.314Z,20
2022-11-19T00:14:16.319Z,16
2022-11-19T00:19:16.602Z,15
2022-11-19T00:23:16.318Z,16
2022-11-19T00:25:16.317Z,16
2022-11-19T00:26:16.329Z,16
2022-11-19T00:27:16.315Z,16
2022-11-19T00:28:16.321Z,14
2022-11-19T00:39:16.360Z,12
2022-11-19T01:03:16.325Z,15
2022-11-19T02:01:16.363Z,18
2022-11-19T02:02:16.325Z,20
2022-11-19T02:03:16.323Z,19
2022-11-19T02:10:16.346Z,17
2022-11-19T02:34:16.329Z,18
2022-11-19T03:13:16.318Z,26
2022-11-19T03:23:16.333Z,29
2022-11-19T03:28:16.318Z,33
2022-11-19T03:29:16.330Z,31
2022-11-19T03:31:16.315Z,26
2022-11-19T03:32:16.319Z,27
2022-11-19T03:33:16.315Z,30
2022-11-19T03:34:16.322Z,29
2022-11-19T03:38:16.318Z,31
2022-11-19T03:40:16.311Z,29
2022-11-19T03:41:16.322Z,27
2022-11-19T03:42:16.324Z,25
2022-11-19T03:43:16.334Z,30
2022-11-19T03:53:16.328Z,26
2022-11-19T03:54:16.334Z,29
2022-11-19T03:55:16.318Z,29
2022-11-19T03:56:16.319Z,30
2022-11-19T04:04:16.325Z,28
2022-11-19T04:06:16.324Z,31
2022-11-19T04:07:16.362Z,25
2022-11-19T04:08:16.326Z,25
2022-11-19T04:11:16.330Z,30
2022-11-19T04:15:16.320Z,30
2022-11-19T04:17:16.320Z,27
2022-11-19T05:15:16.335Z,24
2022-11-19T05:53:16.332Z,29
2022-11-19T05:56:16.322Z,33
2022-11-19T05:58:16.320Z,35
2022-11-19T06:00:16.323Z,39
2022-11-19T06:01:16.347Z,36
2022-11-19T06:02:16.324Z,34
2022-11-19T06:03:16.362Z,36
2022-11-19T06:04:16.396Z,39
2022-11-19T06:49:20.181Z,35
2022-11-19T06:54:16.324Z,31
2022-11-19T07:02:21.167Z,30
2022-11-19T07:06:16.324Z,30
2022-11-19T07:22:16.323Z,29
2022-11-19T07:37:16.329Z,27
2022-11-19T07:41:16.324Z,30
2022-11-19T07:57:16.323Z,26
2022-11-19T08:17:16.320Z,29
2022-11-19T08:21:16.318Z,26
2022-11-19T08:23:16.381Z,27
2022-11-19T08:24:16.329Z,24
2022-11-19T08:25:16.324Z,22
2022-11-19T08:26:16.323Z,25
2022-11-19T09:01:16.388Z,18
2022-11-19T09:03:16.333Z,18
2022-11-19T09:04:16.318Z,20
2022-11-19T09:05:16.318Z,18
2022-11-19T09:13:16.321Z,19
2022-11-19T09:19:16.326Z,19
2022-11-19T09:20:16.317Z,21
2022-11-19T09:44:16.325Z,17
2022-11-19T09:46:16.317Z,14
2022-11-19T09:48:16.323Z,18
2022-11-19T09:49:16.313Z,17
2022-11-19T10:38:16.315Z,13
2022-11-19T10:44:16.314Z,15
2022-11-19T10:45:16.321Z,13
2022-11-19T11:43:16.322Z,13
2022-11-19T11:44:16.323Z,14
2022-11-19T11:47:16.340Z,14
2022-11-19T11:48:16.320Z,15
2022-11-19T11:49:16.324Z,13
2022-11-19T11:50:16.312Z,14
2022-11-19T11:51:16.315Z,13
2022-11-19T11:52:16.316Z,14
2022-11-19T11:54:18.176Z,13
2022-11-19T12:01:16.314Z,12
2022-11-19T12:02:16.356Z,14
2022-11-19T12:26:16.314Z,13
2022-11-19T12:27:16.349Z,13
2022-11-19T12:28:16.317Z,12
2022-11-19T12:40:16.323Z,13
2022-11-19T12:43:16.314Z,14
2022-11-19T12:45:16.361Z,12
2022-11-19T12:47:16.319Z,15
2022-11-19T12:48:16.317Z,13
2022-11-19T12:49:16.332Z,12
2022-11-19T12:52:16.330Z,13
2022-11-19T12:53:16.318Z,13
2022-11-19T12:54:19.500Z,14
2022-11-19T12:55:16.397Z,12
2022-11-19T13:02:16.338Z,12
2022-11-19T13:03:16.320Z,12
2022-11-19T13:04:16.341Z,12
2022-11-19T13:14:16.320Z,13
2022-11-19T13:15:16.317Z,16
2022-11-19T13:16:16.328Z,12
2022-11-19T13:20:16.321Z,12
2022-11-19T13:23:16.315Z,14
2022-11-19T14:14:16.321Z,11
2022-11-19T14:15:16.327Z,12
2022-11-19T14:16:16.344Z,11
2022-11-19T14:18:16.318Z,12
2022-11-19T14:19:16.328Z,12
2022-11-19T14:20:16.320Z,11
2022-11-19T14:21:16.326Z,11
2022-11-19T14:57:16.323Z,12
2022-11-19T14:58:16.403Z,13
2022-11-19T14:59:16.336Z,14
2022-11-19T15:00:16.326Z,13
2022-11-19T15:05:16.321Z,13
2022-11-19T15:06:16.318Z,12
2022-11-19T15:07:16.349Z,12
2022-11-19T15:08:16.317Z,12
2022-11-19T15:09:16.320Z,16
2022-11-19T15:15:16.333Z,11
2022-11-19T15:17:16.319Z,13
2022-11-19T15:27:16.327Z,12
2022-11-19T15:41:16.327Z,10
2022-11-19T15:45:16.319Z,11
2022-11-19T15:49:16.324Z,12
2022-11-19T15:51:16.323Z,12
2022-11-19T15:53:16.341Z,11
2022-11-19T15:54:16.323Z,10
2022-11-19T15:55:16.336Z,11
2022-11-19T15:56:16.322Z,11
2022-11-19T15:57:16.326Z,11
2022-11-19T15:58:16.321Z,10
2022-11-19T15:59:16.333Z,12
2022-11-19T16:00:16.344Z,11
2022-11-19T16:02:16.319Z,10
2022-11-19T16:03:16.324Z,13
2022-11-19T16:04:16.319Z,12
2022-11-19T16:06:16.320Z,14
2022-11-19T16:07:16.360Z,12
2022-11-19T16:08:16.326Z,11
2022-11-19T16:09:16.325Z,10
2022-11-19T16:11:20.275Z,11
2022-11-19T16:12:16.319Z,11
2022-11-19T16:13:16.326Z,11
2022-11-19T16:14:16.388Z,10
2022-11-19T16:16:16.323Z,11
2022-11-19T16:17:16.329Z,12
2022-11-19T16:18:16.320Z,11
2022-11-19T16:19:16.326Z,13
2022-11-19T16:20:16.327Z,11
2022-11-19T16:21:16.326Z,11
2022-11-19T16:22:16.336Z,10
2022-11-19T16:23:16.321Z,13
2022-11-19T16:25:16.321Z,12
2022-11-19T16:26:16.324Z,10
2022-11-19T16:27:16.337Z,11
2022-11-19T16:29:16.328Z,11
2022-11-19T16:30:16.318Z,11
2022-11-19T16:31:16.323Z,11
2022-11-19T16:34:16.326Z,10
2022-11-19T16:35:16.324Z,10
2022-11-19T16:36:16.325Z,11
2022-11-19T16:37:16.329Z,11
2022-11-19T16:38:16.326Z,11
2022-11-19T16:39:16.325Z,11
2022-11-19T16:40:16.326Z,11
2022-11-19T16:42:16.317Z,14
2022-11-19T16:43:16.348Z,12
2022-11-19T16:44:16.328Z,11
2022-11-19T16:45:16.327Z,12
2022-11-19T16:47:16.323Z,10
2022-11-19T16:49:16.340Z,11
2022-11-19T16:50:16.322Z,11
2022-11-19T16:51:16.321Z,12
2022-11-19T16:53:16.324Z,10
2022-11-19T16:54:16.332Z,12
2022-11-19T16:55:16.439Z,11
2022-11-19T16:56:17.156Z,10
2022-11-19T16:58:16.329Z,10
2022-11-19T16:59:16.327Z,11
2022-11-19T17:00:16.337Z,11
2022-11-19T17:02:16.317Z,12
2022-11-19T17:03:16.323Z,15
2022-11-19T17:04:16.322Z,11
2022-11-19T17:05:16.322Z,11
2022-11-19T17:06:16.322Z,14
2022-11-19T17:07:16.351Z,12
2022-11-19T17:08:16.324Z,13
2022-11-19T17:09:16.326Z,14
2022-11-19T17:10:21.210Z,15
2022-11-19T17:11:16.324Z,13
2022-11-19T17:12:16.353Z,11
2022-11-19T17:13:16.328Z,11
2022-11-19T17:14:16.326Z,14
2022-11-19T17:15:17.114Z,15
2022-11-19T17:17:16.321Z,15
2022-11-19T17:18:16.328Z,18
2022-11-19T17:19:16.329Z,16
2022-11-19T17:20:16.323Z,15
2022-11-19T17:21:16.320Z,18
2022-11-19T17:22:16.328Z,12
2022-11-19T17:23:16.317Z,13
2022-11-19T17:24:16.316Z,13
2022-11-19T17:26:16.348Z,14
2022-11-19T17:27:16.338Z,11
2022-11-19T17:28:16.323Z,13
2022-11-19T17:29:16.318Z,13
2022-11-19T17:30:16.333Z,11
2022-11-19T17:31:16.333Z,12
2022-11-19T17:32:16.332Z,12
2022-11-19T17:33:16.334Z,13
2022-11-19T17:34:16.330Z,12
2022-11-19T17:35:16.320Z,12
2022-11-19T17:36:16.329Z,12
2022-11-19T17:39:17.521Z,15
2022-11-19T17:40:16.326Z,12
2022-11-19T17:41:16.326Z,13
2022-11-19T17:42:16.329Z,12
2022-11-19T17:43:16.335Z,15
2022-11-19T17:44:16.323Z,13
2022-11-19T17:45:16.324Z,12
2022-11-19T17:46:16.332Z,12
2022-11-19T17:47:23.591Z,12
2022-11-19T17:48:16.321Z,14
2022-11-19T17:49:16.333Z,13
2022-11-19T17:50:16.327Z,12
2022-11-19T17:52:18.889Z,12
2022-11-19T17:53:16.372Z,15
2022-11-19T17:54:16.323Z,14
2022-11-19T17:55:16.328Z,13
2022-11-19T17:57:16.349Z,11
2022-11-19T17:58:16.327Z,12
2022-11-19T17:59:16.328Z,12
2022-11-19T18:00:16.329Z,12
2022-11-19T18:01:16.402Z,12
2022-11-19T18:02:16.328Z,12
2022-11-19T18:03:16.338Z,16
2022-11-19T18:04:16.325Z,13
2022-11-19T18:06:16.328Z,13
2022-11-19T18:07:16.425Z,12
2022-11-19T18:08:16.326Z,13
2022-11-19T18:09:16.328Z,14
2022-11-19T18:11:16.326Z,14
2022-11-19T18:12:16.326Z,17
2022-11-19T18:13:16.323Z,15
2022-11-19T18:14:16.353Z,17
2022-11-19T18:16:16.329Z,16
2022-11-19T18:17:16.329Z,14
2022-11-19T18:19:16.339Z,17
2022-11-19T18:20:16.348Z,14
2022-11-19T18:21:16.336Z,17
2022-11-19T18:22:16.326Z,17
2022-11-19T18:23:16.331Z,14
2022-11-19T18:26:16.326Z,15
2022-11-19T18:27:16.332Z,16
2022-11-19T18:28:16.360Z,17
2022-11-19T18:29:16.322Z,15
2022-11-19T18:30:16.348Z,17
2022-11-19T18:31:16.333Z,14
2022-11-19T18:32:16.349Z,17
2022-11-19T18:34:16.320Z,15
2022-11-19T18:35:16.325Z,15
2022-11-19T18:36:16.348Z,14
2022-11-19T18:37:16.334Z,15
2022-11-19T18:39:16.335Z,14
2022-11-19T18:40:16.329Z,14
2022-11-19T18:41:16.331Z,15
2022-11-19T18:42:16.333Z,14
2022-11-19T18:43:16.328Z,16
2022-11-19T18:44:16.339Z,17
2022-11-19T18:45:16.329Z,15
2022-11-19T18:46:16.324Z,17
2022-11-19T18:47:16.331Z,15
2022-11-19T18:48:16.337Z,16
2022-11-19T18:50:16.330Z,17
2022-11-19T18:51:16.321Z,15
2022-11-19T18:52:16.322Z,16
2022-11-19T18:53:16.330Z,17
2022-11-19T18:55:16.330Z,14
2022-11-19T18:56:16.345Z,13
2022-11-19T18:58:16.334Z,14
2022-11-19T18:59:16.360Z,15
2022-11-19T19:00:16.341Z,15
2022-11-19T19:01:16.469Z,17
2022-11-19T19:02:16.374Z,16
2022-11-19T19:03:16.330Z,16
2022-11-19T19:04:16.328Z,14
2022-11-19T19:05:16.335Z,16
2022-11-19T19:06:16.325Z,18
2022-11-19T19:07:16.362Z,15
2022-11-19T19:08:16.326Z,15
2022-11-19T19:09:16.329Z,16
2022-11-19T19:10:16.327Z,15
2022-11-19T19:12:16.321Z,16
2022-11-19T19:13:16.331Z,16
2022-11-19T19:14:16.327Z,17
2022-11-19T19:15:16.328Z,15
2022-11-19T19:17:16.330Z,16
2022-11-19T19:18:16.383Z,16
2022-11-19T19:19:16.325Z,15
2022-11-19T19:20:16.330Z,17
2022-11-19T19:21:16.335Z,17
2022-11-19T19:22:16.368Z,16
2022-11-19T19:23:16.395Z,17
2022-11-19T19:24:16.369Z,15
2022-11-19T19:25:16.373Z,16
2022-11-19T19:26:16.365Z,16
2022-11-19T19:27:16.373Z,15
2022-11-19T19:28:16.368Z,18
2022-11-19T19:29:16.369Z,15
2022-11-19T19:30:16.399Z,16
2022-11-19T19:32:16.376Z,17
2022-11-19T19:33:16.389Z,14
2022-11-19T19:34:16.919Z,15
2022-11-19T19:35:16.387Z,15
2022-11-19T19:37:16.379Z,16
2022-11-19T19:38:16.369Z,17
2022-11-19T19:40:16.399Z,15
2022-11-19T19:41:16.378Z,14
2022-11-19T19:42:16.368Z,14
2022-11-19T19:43:16.374Z,14
2022-11-19T19:44:16.371Z,15
2022-11-19T19:45:16.402Z,15
2022-11-19T19:46:16.386Z,18
2022-11-19T19:47:16.379Z,16
2022-11-19T19:48:16.376Z,15
2022-11-19T19:50:16.369Z,16
2022-11-19T19:52:16.381Z,16
2022-11-19T19:53:16.374Z,17
2022-11-19T19:54:16.374Z,17
2022-11-19T19:55:16.430Z,18
2022-11-19T19:56:16.369Z,16
2022-11-19T19:57:16.375Z,17
2022-11-19T19:58:16.366Z,16
2022-11-19T19:59:16.373Z,16
2022-11-19T20:00:16.379Z,15
2022-11-19T20:01:16.393Z,17
2022-11-19T20:02:16.441Z,16
2022-11-19T20:03:16.366Z,15
2022-11-19T20:05:16.374Z,14
2022-11-19T20:06:16.370Z,16
2022-11-19T20:07:16.517Z,17
2022-11-19T20:08:16.381Z,15
2022-11-19T20:09:16.381Z,17
2022-11-19T20:11:16.369Z,16
2022-11-19T20:12:16.368Z,15
2022-11-19T20:13:16.375Z,16
2022-11-19T20:14:16.372Z,16
2022-11-19T20:16:18.439Z,14
2022-11-19T20:17:16.392Z,17
2022-11-19T20:18:16.382Z,16
2022-11-19T20:19:16.373Z,15
2022-11-19T20:20:16.374Z,16
2022-11-19T20:21:16.374Z,17
2022-11-19T20:22:16.368Z,15
2022-11-19T20:23:16.379Z,19
2022-11-19T20:24:16.375Z,15
2022-11-19T20:25:16.371Z,14
2022-11-19T20:26:16.372Z,16
2022-11-19T20:27:16.372Z,15
2022-11-19T20:28:16.369Z,15
2022-11-19T20:29:16.383Z,17
2022-11-19T20:30:16.375Z,14
2022-11-19T20:31:16.368Z,15
2022-11-19T20:32:16.479Z,17
2022-11-19T20:33:16.370Z,15
2022-11-19T20:34:16.382Z,15
2022-11-19T20:35:16.383Z,17
2022-11-19T20:36:16.385Z,18
2022-11-19T20:37:16.368Z,17
2022-11-19T20:38:16.377Z,19
2022-11-19T20:39:16.369Z,16
2022-11-19T20:40:16.367Z,17
2022-11-19T20:41:16.385Z,16
2022-11-19T20:42:16.372Z,15
2022-11-19T20:43:16.365Z,19
2022-11-19T20:44:16.373Z,15
2022-11-19T20:45:16.370Z,18
2022-11-19T20:47:16.399Z,16
2022-11-19T20:48:16.378Z,17
2022-11-19T20:49:17.380Z,17
2022-11-19T20:50:16.443Z,14
2022-11-19T20:51:16.388Z,18
2022-11-19T20:52:16.376Z,17
2022-11-19T20:53:16.382Z,18
2022-11-19T20:55:16.381Z,19
2022-11-19T20:56:16.369Z,15
2022-11-19T20:58:16.376Z,15
2022-11-19T20:59:16.371Z,16
2022-11-19T21:00:16.384Z,16
2022-11-19T21:01:16.368Z,16
2022-11-19T21:03:16.376Z,19
2022-11-19T21:04:16.376Z,16
2022-11-19T21:05:16.374Z,16
2022-11-19T21:06:16.372Z,18
2022-11-19T21:07:16.390Z,17
2022-11-19T21:08:16.380Z,18
2022-11-19T21:09:16.377Z,18
2022-11-19T21:10:16.371Z,17
2022-11-19T21:11:16.381Z,18
2022-11-19T21:12:16.387Z,17
2022-11-19T21:13:16.373Z,17
2022-11-19T21:14:16.377Z,18
2022-11-19T21:15:16.384Z,19
2022-11-19T21:16:16.370Z,18
2022-11-19T21:17:16.369Z,18
2022-11-19T21:19:16.372Z,17
2022-11-19T21:20:16.383Z,18
2022-11-19T21:21:16.374Z,19
2022-11-19T21:22:16.377Z,18
2022-11-19T21:23:16.373Z,20
2022-11-19T21:24:16.374Z,19
2022-11-19T21:25:16.365Z,18
2022-11-19T21:26:16.376Z,18
2022-11-19T21:27:16.377Z,18
2022-11-19T21:28:16.378Z,20
2022-11-19T21:29:16.382Z,18
2022-11-19T21:30:16.367Z,19
2022-11-19T21:32:16.390Z,18
2022-11-19T21:33:16.372Z,18
2022-11-19T21:34:16.379Z,16
2022-11-19T21:35:16.436Z,18
2022-11-19T21:37:16.372Z,19
2022-11-19T21:38:16.381Z,17
2022-11-19T21:39:16.446Z,19
2022-11-19T21:40:16.369Z,22
2022-11-19T21:43:16.375Z,19
2022-11-19T21:44:20.988Z,19
2022-11-19T21:45:16.371Z,20
2022-11-19T21:46:16.367Z,16
2022-11-19T21:47:16.376Z,18
2022-11-19T21:48:16.374Z,18
2022-11-19T21:49:16.397Z,19
2022-11-19T21:50:16.374Z,17
2022-11-19T21:51:21.476Z,17
2022-11-19T21:54:16.368Z,18
2022-11-19T21:55:16.372Z,21
2022-11-19T21:56:16.362Z,19
2022-11-19T21:57:16.372Z,21
2022-11-19T21:58:16.389Z,19
2022-11-19T21:59:16.392Z,17
2022-11-19T22:00:16.375Z,18
2022-11-19T22:01:16.514Z,20
2022-11-19T22:02:16.373Z,19
2022-11-19T22:03:16.372Z,18
2022-11-19T22:04:16.369Z,19
2022-11-19T22:05:16.373Z,19
2022-11-19T22:07:16.444Z,20
2022-11-19T22:09:16.374Z,19
2022-11-19T22:11:16.372Z,19
2022-11-19T22:12:16.366Z,19
2022-11-19T22:13:16.371Z,19
2022-11-19T22:14:16.371Z,24
2022-11-19T22:16:16.373Z,20
2022-11-19T22:17:16.374Z,21
2022-11-19T22:18:16.368Z,20
2022-11-19T22:19:16.372Z,18
2022-11-19T22:21:16.368Z,20
2022-11-19T22:22:16.373Z,23
2022-11-19T22:23:18.947Z,23
2022-11-19T22:24:16.373Z,21
2022-11-19T22:25:16.405Z,19
2022-11-19T22:27:16.364Z,19
2022-11-19T22:29:16.365Z,22
2022-11-19T22:30:16.385Z,22
2022-11-19T22:31:16.372Z,23
2022-11-19T22:32:16.369Z,21
2022-11-19T22:33:16.378Z,19
2022-11-19T22:34:16.368Z,20
2022-11-19T22:35:16.368Z,19
2022-11-19T22:36:16.378Z,18
2022-11-19T22:37:16.364Z,19
2022-11-19T22:38:16.365Z,17
2022-11-19T22:39:16.371Z,20
2022-11-19T22:40:16.391Z,19
2022-11-19T22:41:16.366Z,20
2022-11-19T22:42:16.372Z,22
2022-11-19T22:43:20.296Z,21
2022-11-19T22:44:16.378Z,21
2022-11-19T22:45:16.371Z,22
2022-11-19T22:47:16.372Z,21
2022-11-19T22:48:16.457Z,20
2022-11-19T22:49:16.389Z,17
2022-11-19T22:50:16.397Z,20
2022-11-19T22:51:16.398Z,20
2022-11-19T22:52:16.374Z,19
2022-11-19T22:53:16.370Z,20
2022-11-19T22:54:16.367Z,18
2022-11-19T22:55:16.370Z,19
2022-11-19T22:56:16.367Z,20
2022-11-19T22:58:16.373Z,20
2022-11-19T22:59:16.370Z,20
2022-11-19T23:01:16.489Z,19
2022-11-19T23:02:16.489Z,21
2022-11-19T23:03:16.365Z,21
2022-11-19T23:04:16.373Z,19
2022-11-19T23:05:16.396Z,21
2022-11-19T23:07:16.412Z,18
2022-11-19T23:09:16.371Z,19
2022-11-19T23:10:16.374Z,18
2022-11-19T23:11:16.370Z,19
2022-11-19T23:12:16.376Z,20
2022-11-19T23:13:16.366Z,20
2022-11-19T23:15:16.363Z,19
2022-11-19T23:16:16.364Z,19
2022-11-19T23:18:16.370Z,20
2022-11-19T23:19:16.368Z,22
2022-11-19T23:20:16.362Z,18
2022-11-19T23:21:16.368Z,23
2022-11-19T23:23:16.373Z,18
2022-11-19T23:24:16.375Z,24
2022-11-19T23:25:16.367Z,19
2022-11-19T23:26:16.366Z,20
2022-11-19T23:27:21.886Z,20
2022-11-19T23:28:16.370Z,20
2022-11-19T23:29:16.365Z,21
2022-11-19T23:32:16.365Z,32
2022-11-19T23:33:16.361Z,35
2022-11-19T23:34:16.378Z,35
2022-11-19T23:35:16.365Z,39
2022-11-19T23:37:16.360Z,38
2022-11-19T23:39:16.366Z,27
2022-11-19T23:40:16.366Z,29
2022-11-19T23:41:16.367Z,25
2022-11-19T23:43:16.374Z,26
2022-11-19T23:45:16.379Z,27
2022-11-19T23:46:16.370Z,24
2022-11-19T23:48:16.369Z,22
2022-11-19T23:49:16.371Z,23
2022-11-19T23:50:16.372Z,23
2022-11-19T23:51:16.378Z,20
2022-11-19T23:53:16.391Z,22
2022-11-19T23:54:16.374Z,22
2022-11-19T23:55:16.383Z,20
2022-11-19T23:56:16.374Z,22
2022-11-19T23:59:17.158Z,21
